Time;durP1;ratioP1;P1;durP2;ratioP2;P2;SDS_P1;SDS_P2;PMS_P1;PMS_P2;Temp;Humidity;BMP_temperature;BMP_pressure;BME280_temperature;BME280_humidity;BME280_pressure;Samples;Min_cycle;Max_cycle;Signal;HPM_P1;HPM_P2
2021/04/04 00:00:14;;;;;;;7.32;2.92;;;5.00;50.10;;;;;;4977763;28;20444;-86
2021/04/04 00:02:41;;;;;;;5.38;2.80;;;5.00;50.30;;;;;;4983576;28;20396;-86
2021/04/04 00:05:09;;;;;;;11.13;3.05;;;5.00;50.30;;;;;;4974504;28;20441;-86
2021/04/04 00:07:35;;;;;;;6.05;2.75;;;4.90;50.40;;;;;;4976548;28;20085;-87
2021/04/04 00:10:01;;;;;;;5.78;2.40;;;5.00;50.50;;;;;;4978038;28;20041;-86
2021/04/04 00:12:26;;;;;;;5.50;2.95;;;5.00;50.50;;;;;;4977285;28;20030;-86
2021/04/04 00:14:53;;;;;;;4.40;2.55;;;5.00;50.60;;;;;;4977279;28;20429;-86
2021/04/04 00:17:18;;;;;;;5.72;2.50;;;4.90;50.50;;;;;;4978484;28;20054;-87
2021/04/04 00:19:44;;;;;;;8.55;3.05;;;4.90;50.60;;;;;;4980358;28;20101;-84
2021/04/04 00:22:10;;;;;;;8.38;3.10;;;4.90;50.60;;;;;;4978559;28;20030;-87
2021/04/04 00:24:37;;;;;;;5.20;2.88;;;4.80;50.70;;;;;;4979187;28;20142;-86
2021/04/04 00:27:03;;;;;;;8.15;3.25;;;4.80;50.70;;;;;;4988162;28;20042;-87
2021/04/04 00:29:29;;;;;;;6.50;2.95;;;4.80;50.70;;;;;;4979887;28;20039;-86
2021/04/04 00:31:55;;;;;;;5.72;2.90;;;4.80;50.80;;;;;;4977874;28;20122;-86
2021/04/04 00:34:22;;;;;;;7.65;3.30;;;4.70;50.70;;;;;;4976041;28;20054;-86
2021/04/04 00:36:48;;;;;;;4.32;2.80;;;4.70;51.10;;;;;;4978624;28;20027;-86
2021/04/04 00:39:13;;;;;;;8.35;3.58;;;4.70;51.00;;;;;;4977653;28;20037;-86
2021/04/04 00:41:40;;;;;;;6.95;3.08;;;4.70;51.20;;;;;;4993448;28;20039;-84
2021/04/04 00:44:06;;;;;;;5.18;3.00;;;4.70;51.20;;;;;;4977033;28;20030;-85
2021/04/04 00:46:32;;;;;;;7.60;2.97;;;4.60;51.10;;;;;;4981094;28;20034;-85
2021/04/04 00:48:58;;;;;;;5.25;2.92;;;4.60;51.30;;;;;;4982940;28;20397;-86
2021/04/04 00:51:23;;;;;;;8.05;2.85;;;4.50;51.30;;;;;;4991293;28;20113;-86
2021/04/04 00:53:49;;;;;;;6.47;3.00;;;4.50;51.40;;;;;;4982453;28;20028;-85
2021/04/04 00:56:16;;;;;;;5.45;2.75;;;4.40;51.50;;;;;;4979527;28;20022;-86
2021/04/04 00:58:42;;;;;;;6.30;2.92;;;4.40;51.60;;;;;;4980767;28;20042;-86
2021/04/04 01:01:09;;;;;;;6.53;2.78;;;4.30;51.70;;;;;;4989158;28;20033;-86
2021/04/04 01:03:35;;;;;;;5.45;3.15;;;4.30;51.70;;;;;;4997455;28;20031;-85
2021/04/04 01:06:06;;;;;;;4.93;2.92;;;4.30;51.90;;;;;;4979936;28;20042;-86
2021/04/04 01:08:33;;;;;;;5.43;2.83;;;4.30;51.80;;;;;;4982097;28;20022;-86
2021/04/04 01:11:00;;;;;;;9.68;4.05;;;4.40;52.10;;;;;;4979391;28;20037;-86
2021/04/04 01:13:46;;;;;;;3.35;3.00;;;4.40;52.30;;;;;;4980772;28;20026;-86
2021/04/04 01:16:26;;;;;;;7.32;3.40;;;4.40;52.50;;;;;;4996592;28;20681;-86
2021/04/04 01:18:57;;;;;;;8.05;3.60;;;4.30;52.40;;;;;;4980446;28;20041;-85
2021/04/04 01:21:40;;;;;;;13.82;3.80;;;4.30;52.50;;;;;;4988851;28;20037;-86
2021/04/04 01:24:29;;;;;;;6.55;3.58;;;4.20;52.50;;;;;;4997071;28;20022;-86
2021/04/04 01:27:25;;;;;;;10.43;3.97;;;4.20;52.40;;;;;;4981019;28;20031;-86
2021/04/04 01:29:52;;;;;;;8.40;4.18;;;4.10;52.60;;;;;;4978933;28;20031;-86
2021/04/04 01:32:18;;;;;;;8.77;3.08;;;4.10;52.50;;;;;;4986729;28;20037;-86
2021/04/04 01:34:44;;;;;;;7.32;3.92;;;4.00;52.70;;;;;;4979892;28;20094;-86
2021/04/04 01:37:13;;;;;;;9.02;4.07;;;4.00;53.00;;;;;;4979488;28;20038;-87
2021/04/04 01:39:45;;;;;;;10.32;4.95;;;3.90;53.50;;;;;;4980376;28;20184;-86
2021/04/04 01:42:12;;;;;;;;;;;3.90;53.20;;;;;;4979732;28;20050;-86
2021/04/04 01:44:40;;;;;;;6.88;4.35;;;3.80;52.10;;;;;;4980312;28;20238;-86
2021/04/04 01:47:07;;;;;;;13.82;5.93;;;3.60;52.70;;;;;;4981585;28;20026;-86
2021/04/04 01:49:34;;;;;;;10.00;5.35;;;3.50;53.10;;;;;;4998654;28;20046;-85
2021/04/04 01:52:00;;;;;;;11.18;4.75;;;3.40;53.40;;;;;;5012031;28;20069;-86
2021/04/04 01:54:27;;;;;;;10.82;5.13;;;3.30;53.70;;;;;;4993636;28;20034;-85
2021/04/04 01:56:55;;;;;;;12.98;6.03;;;3.30;54.40;;;;;;4977309;28;20023;-85
2021/04/04 01:59:21;;;;;;;9.48;5.72;;;3.30;54.10;;;;;;4978553;28;20385;-84
2021/04/04 02:01:48;;;;;;;11.73;5.47;;;3.20;54.10;;;;;;4978180;28;20038;-85
2021/04/04 02:04:16;;;;;;;9.70;4.97;;;3.20;54.20;;;;;;4978368;28;20035;-85
2021/04/04 02:06:43;;;;;;;11.77;5.13;;;3.20;54.30;;;;;;4979347;28;20138;-85
2021/04/04 02:09:15;;;;;;;9.10;5.05;;;3.20;54.30;;;;;;4984749;28;20027;-85
2021/04/04 02:11:42;;;;;;;10.02;5.13;;;3.20;54.50;;;;;;4978622;28;20031;-85
2021/04/04 02:14:10;;;;;;;9.80;4.75;;;3.20;54.40;;;;;;4996998;28;20046;-85
2021/04/04 02:16:37;;;;;;;12.07;4.88;;;3.20;54.60;;;;;;4997498;28;20033;-85
2021/04/04 02:19:12;;;;;;;12.73;4.78;;;3.30;54.50;;;;;;4981913;28;20512;-85
2021/04/04 02:21:38;;;;;;;11.43;4.45;;;3.20;54.60;;;;;;4983873;28;20022;-85
2021/04/04 02:24:05;;;;;;;8.60;4.47;;;3.20;54.40;;;;;;4981488;28;20034;-85
2021/04/04 02:26:31;;;;;;;12.88;4.40;;;3.20;54.40;;;;;;4992147;28;20558;-85
2021/04/04 02:28:58;;;;;;;10.23;4.60;;;3.10;54.50;;;;;;4982938;28;20370;-85
2021/04/04 02:31:25;;;;;;;10.27;5.07;;;3.10;54.70;;;;;;4978712;28;20184;-85
2021/04/04 02:33:59;;;;;;;8.20;4.28;;;3.10;54.80;;;;;;4976513;28;20052;-85
2021/04/04 02:36:27;;;;;;;11.50;4.90;;;3.00;54.90;;;;;;4991035;28;20035;-85
2021/04/04 02:39:26;;;;;;;9.55;4.57;;;3.00;54.90;;;;;;4975465;28;20043;-86
2021/04/04 02:41:57;;;;;;;13.23;4.82;;;3.10;54.80;;;;;;4966776;28;20050;-85
2021/04/04 02:44:26;;;;;;;11.30;4.55;;;3.10;54.70;;;;;;4977292;28;20113;-85
2021/04/04 02:46:55;;;;;;;9.95;4.65;;;3.10;54.70;;;;;;4982570;28;20031;-86
2021/04/04 02:49:27;;;;;;;9.45;4.05;;;3.10;54.70;;;;;;4991946;28;20027;-86
2021/04/04 02:51:53;;;;;;;7.60;4.33;;;3.10;54.70;;;;;;4992568;28;20053;-86
2021/04/04 02:54:26;;;;;;;7.93;3.90;;;3.00;54.60;;;;;;4978015;28;20022;-87
2021/04/04 02:56:55;;;;;;;7.07;3.95;;;3.00;54.70;;;;;;4984302;28;20117;-86
2021/04/04 02:59:25;;;;;;;8.02;3.22;;;2.90;54.70;;;;;;4986030;28;20049;-86
2021/04/04 03:01:51;;;;;;;6.60;2.88;;;2.80;54.90;;;;;;4976216;28;20027;-86
2021/04/04 03:04:19;;;;;;;7.28;3.30;;;2.70;54.80;;;;;;4974393;28;20033;-86
2021/04/04 03:06:46;;;;;;;8.75;3.33;;;2.70;54.90;;;;;;4981169;28;20121;-86
2021/04/04 03:09:13;;;;;;;8.13;3.53;;;2.60;55.00;;;;;;4977927;28;20523;-86
2021/04/04 03:11:40;;;;;;;8.23;3.03;;;2.50;55.10;;;;;;4977926;28;20044;-86
2021/04/04 03:14:08;;;;;;;5.53;2.78;;;2.50;55.10;;;;;;4976133;28;20026;-86
2021/04/04 03:16:35;;;;;;;6.05;3.20;;;2.50;55.20;;;;;;4976210;28;20022;-85
2021/04/04 03:19:03;;;;;;;4.20;2.90;;;2.50;55.10;;;;;;4999555;28;20034;-86
2021/04/04 03:21:30;;;;;;;5.18;2.72;;;2.60;55.20;;;;;;4974173;28;20035;-86
2021/04/04 03:23:57;;;;;;;9.45;2.95;;;2.60;55.10;;;;;;4988017;28;20034;-86
2021/04/04 03:26:24;;;;;;;7.10;2.80;;;2.60;54.90;;;;;;4993128;28;20046;-86
2021/04/04 03:28:51;;;;;;;7.35;2.90;;;2.60;54.90;;;;;;4976118;28;20050;-86
2021/04/04 03:31:17;;;;;;;6.32;2.85;;;2.60;55.00;;;;;;4970363;28;20039;-86
2021/04/04 03:33:44;;;;;;;5.68;2.97;;;2.60;55.10;;;;;;4991275;28;20456;-86
2021/04/04 03:36:18;;;;;;;4.40;3.03;;;2.50;55.10;;;;;;4988157;28;20039;-86
2021/04/04 03:38:45;;;;;;;6.60;3.05;;;2.50;55.20;;;;;;4980587;28;20031;-85
2021/04/04 03:41:13;;;;;;;9.88;3.08;;;2.50;55.10;;;;;;4976635;28;20057;-85
2021/04/04 03:43:40;;;;;;;5.35;2.75;;;2.50;55.20;;;;;;4990126;28;20026;-86
2021/04/04 03:46:10;;;;;;;6.90;3.03;;;2.40;55.20;;;;;;4982464;28;20101;-86
2021/04/04 03:48:36;;;;;;;8.30;3.30;;;2.40;55.30;;;;;;4978325;28;20449;-86
2021/04/04 03:51:05;;;;;;;9.57;3.10;;;2.40;55.20;;;;;;4977976;28;20115;-86
2021/04/04 03:53:34;;;;;;;7.97;2.80;;;2.40;55.30;;;;;;4974485;28;20046;-85
2021/04/04 03:56:04;;;;;;;8.90;3.42;;;2.40;55.30;;;;;;4975674;28;20027;-86
2021/04/04 03:58:33;;;;;;;7.18;3.08;;;2.30;55.30;;;;;;4973880;28;20030;-87
2021/04/04 04:01:01;;;;;;;5.30;2.95;;;2.40;55.40;;;;;;4981047;28;20033;-86
2021/04/04 04:03:28;;;;;;;4.72;2.70;;;2.30;55.20;;;;;;4992668;28;20125;-86
2021/04/04 04:05:54;;;;;;;5.55;3.10;;;2.30;55.20;;;;;;4981424;28;20026;-86
2021/04/04 04:08:21;;;;;;;6.60;3.28;;;2.30;55.90;;;;;;5001636;28;20023;-87
2021/04/04 04:10:47;;;;;;;10.00;3.00;;;2.30;55.40;;;;;;4976562;28;20039;-86
2021/04/04 04:13:14;;;;;;;5.75;2.85;;;2.30;55.30;;;;;;5027074;23;20480;-86
2021/04/04 04:15:41;;;;;;;5.68;3.10;;;2.20;55.20;;;;;;4997146;28;20022;-86
2021/04/04 04:18:08;;;;;;;8.90;3.13;;;2.20;55.30;;;;;;5009637;28;20109;-86
2021/04/04 04:20:35;;;;;;;11.43;3.28;;;2.10;55.60;;;;;;4991064;28;20081;-87
2021/04/04 04:23:05;;;;;;;5.50;2.92;;;2.10;55.80;;;;;;5000855;28;20034;-86
2021/04/04 04:25:32;;;;;;;8.52;3.28;;;2.10;55.70;;;;;;5008756;28;20023;-86
2021/04/04 04:27:58;;;;;;;6.57;2.72;;;2.20;55.70;;;;;;4998689;28;20493;-86
2021/04/04 04:30:24;;;;;;;6.47;2.78;;;2.20;55.70;;;;;;5006292;28;20037;-87
2021/04/04 04:32:56;;;;;;;5.15;2.80;;;2.20;55.60;;;;;;5000955;28;20030;-86
2021/04/04 04:35:24;;;;;;;6.72;2.95;;;2.20;55.60;;;;;;5004824;28;20033;-86
2021/04/04 04:37:50;;;;;;;7.93;3.10;;;2.20;55.50;;;;;;5000844;28;20058;-86
2021/04/04 04:40:18;;;;;;;5.22;2.83;;;2.20;55.50;;;;;;5000074;28;20038;-85
2021/04/04 04:42:47;;;;;;;4.57;2.60;;;2.10;55.50;;;;;;4997881;28;20033;-86
2021/04/04 04:45:21;;;;;;;4.07;2.47;;;2.10;55.60;;;;;;5006273;28;20076;-87
2021/04/04 04:47:48;;;;;;;6.50;3.42;;;2.00;55.60;;;;;;4994365;28;20030;-86
2021/04/04 04:50:14;;;;;;;7.65;3.75;;;1.90;55.50;;;;;;4999131;28;20023;-86
2021/04/04 04:52:41;;;;;;;7.97;4.05;;;1.90;55.90;;;;;;5001828;28;20401;-86
2021/04/04 04:55:08;;;;;;;7.30;4.07;;;1.90;56.30;;;;;;5017272;28;20138;-86
2021/04/04 04:57:35;;;;;;;7.25;4.35;;;1.90;56.10;;;;;;5016997;28;20073;-86
2021/04/04 05:00:04;;;;;;;7.65;4.60;;;1.80;56.10;;;;;;4997714;28;20535;-86
2021/04/04 05:02:29;;;;;;;9.90;4.60;;;1.80;56.20;;;;;;5007613;28;20496;-86
2021/04/04 05:04:55;;;;;;;12.10;6.40;;;1.80;56.30;;;;;;5017712;28;20034;-87
2021/04/04 05:07:21;;;;;;;12.68;7.07;;;1.80;56.50;;;;;;5016385;28;20018;-86
2021/04/04 05:09:48;;;;;;;12.05;5.82;;;1.80;56.60;;;;;;5002277;28;20026;-87
2021/04/04 05:12:24;;;;;;;11.52;5.80;;;1.80;56.50;;;;;;5004216;28;20035;-86
2021/04/04 05:14:50;;;;;;;12.85;6.38;;;1.80;56.70;;;;;;5028423;28;20069;-86
2021/04/04 05:17:16;;;;;;;12.38;6.25;;;1.90;56.70;;;;;;5015492;28;20110;-86
2021/04/04 05:19:41;;;;;;;11.98;6.63;;;1.90;56.80;;;;;;4993328;28;20110;-86
2021/04/04 05:22:10;;;;;;;12.57;6.43;;;2.00;56.80;;;;;;5003510;28;20070;-87
2021/04/04 05:24:37;;;;;;;12.02;5.78;;;2.10;56.70;;;;;;4999628;28;20489;-86
2021/04/04 05:27:03;;;;;;;11.95;6.00;;;2.10;56.60;;;;;;5002138;28;20031;-86
2021/04/04 05:29:29;;;;;;;9.50;5.28;;;2.10;56.60;;;;;;5008375;28;20022;-86
2021/04/04 05:31:57;;;;;;;10.68;5.88;;;2.10;56.60;;;;;;5003799;28;20031;-86
2021/04/04 05:34:26;;;;;;;13.65;5.72;;;2.10;56.70;;;;;;5000462;28;20033;-87
2021/04/04 05:36:52;;;;;;;14.82;6.57;;;2.20;56.80;;;;;;5002271;28;20233;-84
2021/04/04 05:39:24;;;;;;;16.70;8.63;;;2.20;56.80;;;;;;5002987;28;20061;-85
2021/04/04 05:41:52;;;;;;;10.43;6.17;;;2.30;56.90;;;;;;5002063;28;20454;-85
2021/04/04 05:44:27;;;;;;;13.20;5.72;;;2.30;56.70;;;;;;5005675;28;20284;-85
2021/04/04 05:46:59;;;;;;;11.07;5.88;;;2.30;56.70;;;;;;5004708;28;20489;-85
2021/04/04 05:49:48;;;;;;;9.50;5.15;;;2.20;56.60;;;;;;5002217;28;20026;-85
2021/04/04 05:52:41;;;;;;;11.32;5.72;;;2.20;57.20;;;;;;4998556;28;20031;-85
2021/04/04 05:55:25;;;;;;;10.05;5.45;;;2.10;56.90;;;;;;5016616;28;20034;-85
2021/04/04 05:57:57;;;;;;;11.23;5.63;;;2.00;56.80;;;;;;5009817;28;20054;-85
2021/04/04 06:00:27;;;;;;;13.60;6.25;;;2.00;57.20;;;;;;4993088;28;20128;-84
2021/04/04 06:03:11;;;;;;;12.38;6.18;;;2.00;57.40;;;;;;5000720;28;20030;-85
2021/04/04 06:06:02;;;;;;;10.10;5.75;;;2.10;57.50;;;;;;5002977;28;20030;-85
2021/04/04 06:09:04;;;;;;;12.02;5.97;;;2.10;57.50;;;;;;5007900;28;20525;-85
2021/04/04 06:11:47;;;;;;;13.38;5.75;;;2.10;57.30;;;;;;5001522;28;20113;-86
2021/04/04 06:14:42;;;;;;;;;;;2.10;57.30;;;;;;5009776;28;20041;-87
2021/04/04 06:17:14;;;;;;;11.40;5.47;;;2.20;56.70;;;;;;5015369;28;19941;-86
2021/04/04 06:19:46;;;;;;;11.65;5.43;;;2.20;57.20;;;;;;5019930;28;20484;-87
2021/04/04 06:22:26;;;;;;;13.00;5.55;;;2.30;57.50;;;;;;5008247;28;20046;-87
2021/04/04 06:25:03;;;;;;;12.55;5.47;;;2.40;57.40;;;;;;5006120;28;20022;-87
2021/04/04 06:27:38;;;;;;;13.57;5.60;;;2.40;57.50;;;;;;5002853;28;20018;-86
2021/04/04 06:30:20;;;;;;;10.80;5.30;;;2.50;57.60;;;;;;5005814;28;20402;-87
2021/04/04 06:33:17;;;;;;;12.35;5.43;;;2.60;57.50;;;;;;5000920;28;20045;-86
2021/04/04 06:36:05;;;;;;;10.13;5.43;;;2.70;57.60;;;;;;4989651;28;20058;-87
2021/04/04 06:38:44;;;;;;;12.32;5.43;;;2.90;57.70;;;;;;5018413;28;20022;-87
2021/04/04 06:41:25;;;;;;;17.10;8.23;;;3.10;57.70;;;;;;5004377;28;20058;-87
2021/04/04 06:44:05;;;;;;;23.30;9.68;;;3.30;57.40;;;;;;5012357;28;20030;-87
2021/04/04 06:46:43;;;;;;;14.52;6.80;;;3.60;57.50;;;;;;4997490;28;20455;-87
2021/04/04 06:49:37;;;;;;;16.17;6.18;;;3.80;57.40;;;;;;4997578;28;20036;-87
2021/04/04 06:52:30;;;;;;;18.63;6.65;;;3.90;57.20;;;;;;4997558;28;20038;-86
2021/04/04 06:55:14;;;;;;;12.88;5.35;;;4.00;57.00;;;;;;4997579;28;20682;-86
2021/04/04 06:57:52;;;;;;;13.65;5.72;;;4.10;57.30;;;;;;4997111;28;20041;-87
2021/04/04 07:00:30;;;;;;;8.25;4.18;;;4.40;57.30;;;;;;5012613;28;20026;-87
2021/04/04 07:03:10;;;;;;;10.98;4.97;;;4.60;56.90;;;;;;5014112;28;20378;-87
2021/04/04 07:06:16;;;;;;;8.45;4.30;;;4.80;56.70;;;;;;5023180;28;20048;-87
2021/04/04 07:09:16;;;;;;;11.10;4.57;;;5.00;56.60;;;;;;5013259;28;20054;-89
2021/04/04 07:11:53;;;;;;;9.30;4.70;;;5.20;56.40;;;;;;5026296;28;20130;-88
2021/04/04 07:14:42;;;;;;;11.38;4.95;;;5.50;56.60;;;;;;5016946;28;20086;-87
2021/04/04 07:17:49;;;;;;;13.18;5.20;;;5.80;56.40;;;;;;5025431;28;20011;-87
2021/04/04 07:20:42;;;;;;;9.48;4.20;;;6.20;55.80;;;;;;5028704;28;20026;-86
2021/04/04 07:23:35;;;;;;;13.02;4.75;;;6.50;55.40;;;;;;5009977;28;20045;-87
2021/04/04 07:26:03;;;;;;;;;;;6.70;55.10;;;;;;4985209;28;20027;-86
2021/04/04 07:28:46;;;;;;;9.25;4.20;;;7.00;54.60;;;;;;4996091;28;19909;-87
2021/04/04 07:31:14;;;;;;;8.00;4.00;;;7.30;54.70;;;;;;5006039;28;20026;-86
2021/04/04 07:33:51;;;;;;;10.55;4.05;;;7.60;54.60;;;;;;5010068;28;20049;-87
2021/04/04 07:36:29;;;;;;;10.63;4.38;;;7.90;54.30;;;;;;5011904;28;20328;-87
2021/04/04 07:38:57;;;;;;;12.07;4.32;;;8.10;54.30;;;;;;4994524;28;20054;-87
2021/04/04 07:41:56;;;;;;;8.98;3.83;;;8.60;54.20;;;;;;4996409;28;20027;-87
2021/04/04 07:44:34;;;;;;;9.23;3.78;;;8.90;54.00;;;;;;5002776;28;20015;-86
2021/04/04 07:47:26;;;;;;;6.95;3.85;;;9.40;53.40;;;;;;4998776;28;20117;-86
2021/04/04 07:49:59;;;;;;;10.15;4.20;;;9.60;52.20;;;;;;4993095;28;20036;-86
2021/04/04 07:52:32;;;;;;;9.23;3.55;;;9.80;52.30;;;;;;5013066;28;20034;-86
2021/04/04 07:55:36;;;;;;;8.27;4.10;;;10.00;51.90;;;;;;5011745;28;20045;-86
2021/04/04 07:58:23;;;;;;;7.05;3.60;;;10.10;51.60;;;;;;4989054;28;20068;-90
2021/04/04 08:01:01;;;;;;;11.43;4.43;;;10.10;51.10;;;;;;4995798;28;20035;-87
2021/04/04 08:03:55;;;;;;;9.65;4.22;;;10.30;51.30;;;;;;4995831;28;20053;-88
2021/04/04 08:06:26;;;;;;;10.55;4.47;;;10.50;51.40;;;;;;4995030;28;20073;-88
2021/04/04 08:09:02;;;;;;;9.85;4.20;;;11.10;51.90;;;;;;5016665;28;20053;-89
2021/04/04 08:11:44;;;;;;;7.53;4.03;;;11.50;50.70;;;;;;5009953;28;20492;-86
2021/04/04 08:14:16;;;;;;;11.03;4.30;;;11.80;50.20;;;;;;5017969;28;20034;-88
2021/04/04 08:16:54;;;;;;;10.00;4.25;;;12.00;49.80;;;;;;4983217;28;20610;-87
2021/04/04 08:19:20;;;;;;;8.90;3.95;;;12.50;50.00;;;;;;4993021;28;20053;-90
2021/04/04 08:21:58;;;;;;;9.85;4.25;;;13.20;49.50;;;;;;4984312;28;20070;-89
2021/04/04 08:24:38;;;;;;;8.50;3.88;;;13.60;48.10;;;;;;4992731;28;20457;-86
2021/04/04 08:27:12;;;;;;;10.98;4.72;;;13.90;47.40;;;;;;4987709;28;20117;-88
2021/04/04 08:29:49;;;;;;;7.93;3.60;;;14.30;47.80;;;;;;4989026;28;20053;-87
2021/04/04 08:32:22;;;;;;;8.25;3.85;;;14.90;47.00;;;;;;4981869;28;20034;-87
2021/04/04 08:34:57;;;;;;;9.95;3.85;;;15.50;46.40;;;;;;4988850;28;20030;-87
2021/04/04 08:37:39;;;;;;;9.48;4.15;;;16.00;45.30;;;;;;4984161;28;20026;-87
2021/04/04 08:40:11;;;;;;;9.82;4.22;;;16.40;44.70;;;;;;4996977;28;20484;-88
2021/04/04 08:42:38;;;;;;;10.68;4.43;;;16.70;43.00;;;;;;4988632;28;20048;-87
2021/04/04 08:45:31;;;;;;;7.85;4.13;;;16.70;42.40;;;;;;5002423;28;20477;-86
2021/04/04 08:47:57;;;;;;;7.35;4.30;;;16.70;41.90;;;;;;5009158;28;20034;-85
2021/04/04 08:50:25;;;;;;;9.80;3.97;;;16.70;41.50;;;;;;4992424;28;20496;-86
2021/04/04 08:53:06;;;;;;;8.43;3.65;;;17.00;41.40;;;;;;5002116;28;20261;-87
2021/04/04 08:55:31;;;;;;;7.43;3.83;;;17.60;41.00;;;;;;4991020;28;20081;-87
2021/04/04 08:58:01;;;;;;;10.43;3.60;;;18.10;39.50;;;;;;4992146;28;20026;-86
2021/04/04 09:00:28;;;;;;;7.40;3.53;;;18.30;38.20;;;;;;4989704;28;20022;-86
2021/04/04 09:02:56;;;;;;;7.97;3.17;;;18.50;36.50;;;;;;5007597;28;20030;-87
2021/04/04 09:05:27;;;;;;;7.15;3.00;;;18.50;36.20;;;;;;5006326;28;20118;-87
2021/04/04 09:08:01;;;;;;;8.52;3.42;;;18.80;36.60;;;;;;5011527;28;20029;-87
2021/04/04 09:10:29;;;;;;;7.20;2.80;;;19.10;35.30;;;;;;4992705;28;20023;-87
2021/04/04 09:12:56;;;;;;;9.32;2.63;;;19.30;34.90;;;;;;5011114;28;20809;-87
2021/04/04 09:15:22;;;;;;;5.72;2.40;;;19.60;34.90;;;;;;4990260;28;20061;-87
2021/04/04 09:17:57;;;;;;;5.80;2.65;;;20.30;35.00;;;;;;4988040;28;20111;-86
2021/04/04 09:20:34;;;;;;;7.82;2.80;;;20.80;33.90;;;;;;4994270;28;20113;-86
2021/04/04 09:23:02;;;;;;;6.85;2.50;;;20.90;31.70;;;;;;4979583;28;20034;-86
2021/04/04 09:25:30;;;;;;;6.78;2.50;;;20.60;31.70;;;;;;4995264;28;20026;-86
2021/04/04 09:27:57;;;;;;;9.00;3.20;;;20.70;32.70;;;;;;4995418;28;20719;-86
2021/04/04 09:30:34;;;;;;;3.47;1.83;;;20.80;31.80;;;;;;4996129;28;20031;-86
2021/04/04 09:33:12;;;;;;;5.07;2.45;;;21.00;32.30;;;;;;4997184;28;20102;-86
2021/04/04 09:35:40;;;;;;;5.97;1.90;;;21.50;32.40;;;;;;4995570;28;20026;-86
2021/04/04 09:38:12;;;;;;;15.95;5.28;;;21.70;32.10;;;;;;4996727;28;20036;-88
2021/04/04 09:40:39;;;;;;;6.82;2.15;;;21.80;32.10;;;;;;4998135;28;20057;-87
2021/04/04 09:43:06;;;;;;;5.85;2.35;;;21.70;32.40;;;;;;5012761;28;20030;-87
2021/04/04 09:45:32;;;;;;;5.30;2.17;;;21.50;32.50;;;;;;5000129;28;20026;-88
2021/04/04 09:47:58;;;;;;;7.00;1.95;;;21.20;32.80;;;;;;4995111;28;20034;-87
2021/04/04 09:50:28;;;;;;;7.22;2.00;;;20.80;33.30;;;;;;4982120;28;20018;-87
2021/04/04 09:52:55;;;;;;;5.50;2.10;;;20.50;33.60;;;;;;4996385;28;20041;-89
2021/04/04 09:55:26;;;;;;;6.95;2.20;;;20.10;33.70;;;;;;4995691;28;20485;-88
2021/04/04 09:57:57;;;;;;;7.28;2.83;;;19.80;34.00;;;;;;4995626;28;20035;-88
2021/04/04 10:00:31;;;;;;;5.43;2.05;;;19.60;34.90;;;;;;4995239;28;20029;-86
2021/04/04 10:03:08;;;;;;;4.32;2.10;;;19.30;35.40;;;;;;4994862;28;20033;-87
2021/04/04 10:05:40;;;;;;;6.13;2.72;;;19.10;35.70;;;;;;4995834;28;20500;-88
2021/04/04 10:08:07;;;;;;;3.25;2.45;;;19.00;36.10;;;;;;5006862;28;20057;-88
2021/04/04 10:10:36;;;;;;;3.88;2.25;;;18.90;35.60;;;;;;4996317;28;20473;-88
2021/04/04 10:13:03;;;;;;;5.82;2.45;;;18.70;35.80;;;;;;5001759;28;20038;-88
2021/04/04 10:15:47;;;;;;;7.20;2.30;;;18.70;35.90;;;;;;5011054;28;20022;-87
2021/04/04 10:18:14;;;;;;;7.78;2.22;;;18.70;36.00;;;;;;4997500;28;20038;-88
2021/04/04 10:20:45;;;;;;;5.43;2.30;;;18.60;35.90;;;;;;5008397;28;20091;-87
2021/04/04 10:23:13;;;;;;;5.57;2.50;;;18.50;35.90;;;;;;5025374;23;20379;-68
2021/04/04 10:26:21;;;;;;;5.93;2.38;;;18.50;35.80;;;;;;5018168;28;20026;-66
2021/04/04 10:29:01;;;;;;;5.65;2.40;;;18.50;35.80;;;;;;5012915;28;20037;-67
2021/04/04 10:31:49;;;;;;;4.57;2.22;;;18.50;35.60;;;;;;4993761;28;20019;-66
2021/04/04 10:34:15;;;;;;;5.85;2.25;;;18.50;36.20;;;;;;4991056;28;20053;-69
2021/04/04 10:36:41;;;;;;;4.95;1.80;;;18.60;35.70;;;;;;4992114;28;20081;-66
2021/04/04 10:39:27;;;;;;;3.00;1.60;;;18.50;35.80;;;;;;5004754;23;20045;-69
2021/04/04 10:41:52;;;;;;;6.72;2.25;;;18.60;35.10;;;;;;4991790;28;20034;-66
2021/04/04 10:44:24;;;;;;;5.60;1.90;;;18.20;34.10;;;;;;5010099;28;20120;-67
2021/04/04 10:46:50;;;;;;;7.00;2.50;;;17.90;34.50;;;;;;5011675;28;20026;-66
2021/04/04 10:49:17;;;;;;;6.60;1.90;;;17.50;34.10;;;;;;4993646;28;20033;-67
2021/04/04 10:51:44;;;;;;;6.25;2.20;;;17.10;34.00;;;;;;4991713;28;20069;-66
2021/04/04 10:54:10;;;;;;;4.25;2.15;;;16.90;34.90;;;;;;4987542;28;20023;-67
2021/04/04 10:56:36;;;;;;;5.07;2.00;;;17.00;35.40;;;;;;4991491;28;20035;-67
2021/04/04 10:59:03;;;;;;;6.95;2.00;;;17.30;35.30;;;;;;5003419;28;20030;-67
2021/04/04 11:01:31;;;;;;;3.05;1.88;;;17.50;35.20;;;;;;5010948;28;20026;-67
2021/04/04 11:03:57;;;;;;;7.93;2.88;;;17.80;35.10;;;;;;5010292;28;20639;-67
2021/04/04 11:06:23;;;;;;;3.67;1.98;;;17.90;33.80;;;;;;5010788;28;20057;-67
2021/04/04 11:08:49;;;;;;;4.13;2.20;;;17.70;34.10;;;;;;4996644;28;20022;-69
2021/04/04 11:11:15;;;;;;;4.90;2.85;;;17.70;34.50;;;;;;5003436;28;20109;-67
2021/04/04 11:13:47;;;;;;;4.93;2.53;;;17.60;33.10;;;;;;5010863;28;20022;-67
2021/04/04 11:16:13;;;;;;;;;;;17.50;33.80;;;;;;4995140;28;20073;-69
2021/04/04 11:18:45;;;;;;;6.30;2.17;;;17.50;35.20;;;;;;4990646;28;19910;-67
2021/04/04 11:21:17;;;;;;;6.43;2.15;;;17.60;34.70;;;;;;4991079;28;20085;-67
2021/04/04 11:23:44;;;;;;;7.18;2.90;;;17.80;34.70;;;;;;4991373;28;20064;-67
2021/04/04 11:26:35;;;;;;;8.13;2.90;;;18.00;34.50;;;;;;4992754;28;20041;-71
2021/04/04 11:29:10;;;;;;;6.05;2.63;;;17.90;33.20;;;;;;4998485;28;20034;-67
2021/04/04 11:31:37;;;;;;;6.45;2.72;;;17.70;33.40;;;;;;4990755;28;20731;-68
2021/04/04 11:34:31;;;;;;;5.85;2.08;;;17.50;33.60;;;;;;4990621;28;20030;-67
2021/04/04 11:37:05;;;;;;;6.40;2.55;;;17.40;34.10;;;;;;4971757;28;20518;-66
2021/04/04 11:39:32;;;;;;;4.78;2.15;;;17.30;34.30;;;;;;4995997;28;20458;-66
2021/04/04 11:42:03;;;;;;;5.25;2.47;;;17.20;34.40;;;;;;4998340;28;20548;-67
2021/04/04 11:44:40;;;;;;;6.32;2.67;;;17.10;34.50;;;;;;4990616;28;20118;-67
2021/04/04 11:47:15;;;;;;;10.00;2.63;;;17.20;34.60;;;;;;4988678;28;20030;-67
2021/04/04 11:49:45;;;;;;;9.43;3.38;;;17.30;34.70;;;;;;4998248;28;20486;-69
2021/04/04 11:52:11;;;;;;;4.90;2.33;;;17.40;34.80;;;;;;4990553;28;20092;-68
2021/04/04 11:54:49;;;;;;;5.30;2.67;;;17.50;34.50;;;;;;4988522;28;20438;-67
2021/04/04 11:57:30;;;;;;;9.15;2.47;;;17.60;34.40;;;;;;4989508;28;20034;-66
2021/04/04 12:00:07;;;;;;;8.05;2.30;;;17.70;34.10;;;;;;4988060;28;20035;-67
2021/04/04 12:02:35;;;;;;;10.07;2.70;;;17.90;34.30;;;;;;4981541;28;20031;-67
2021/04/04 12:05:07;;;;;;;4.78;2.33;;;18.10;34.20;;;;;;4988633;28;20022;-66
2021/04/04 12:07:42;;;;;;;5.90;2.70;;;18.20;33.70;;;;;;4982414;28;20424;-66
2021/04/04 12:10:10;;;;;;;4.80;2.40;;;18.20;33.70;;;;;;4997695;28;20038;-69
2021/04/04 12:12:36;;;;;;;7.43;2.40;;;18.30;33.90;;;;;;5003654;28;20044;-66
2021/04/04 12:15:02;;;;;;;6.30;2.35;;;18.40;34.00;;;;;;4987204;28;20031;-68
2021/04/04 12:17:30;;;;;;;7.10;2.58;;;18.60;33.90;;;;;;4987911;28;20026;-68
2021/04/04 12:19:56;;;;;;;7.55;2.70;;;18.80;33.50;;;;;;4992707;28;20749;-67
2021/04/04 12:22:43;;;;;;;38.08;21.52;;;18.80;33.00;;;;;;4988482;28;20041;-69
2021/04/04 12:25:14;;;;;;;5.82;3.00;;;18.80;33.50;;;;;;4984609;28;20057;-66
2021/04/04 12:27:42;;;;;;;9.93;2.97;;;19.00;33.00;;;;;;4987955;28;20026;-67
2021/04/04 12:30:20;;;;;;;6.68;2.50;;;19.00;32.60;;;;;;5002422;28;20029;-70
2021/04/04 12:32:45;;;;;;;7.68;2.80;;;19.00;32.70;;;;;;5003107;28;20049;-66
2021/04/04 12:35:20;;;;;;;6.03;2.83;;;19.00;32.80;;;;;;4988988;28;20035;-65
2021/04/04 12:37:46;;;;;;;5.55;2.78;;;19.00;32.00;;;;;;4989503;28;20530;-69
2021/04/04 12:40:12;;;;;;;5.80;2.58;;;18.70;30.90;;;;;;4996835;28;20124;-66
2021/04/04 12:42:38;;;;;;;9.02;3.17;;;18.50;31.70;;;;;;5002550;28;20100;-66
2021/04/04 12:45:14;;;;;;;4.28;2.38;;;18.30;32.40;;;;;;4981170;28;20078;-67
2021/04/04 12:47:42;;;;;;;4.57;2.58;;;18.40;32.70;;;;;;4990311;28;20027;-66
2021/04/04 12:50:22;;;;;;;7.00;2.25;;;18.50;32.70;;;;;;4993003;28;20050;-66
2021/04/04 12:52:49;;;;;;;7.63;2.88;;;18.60;32.80;;;;;;4993961;28;20065;-66
2021/04/04 12:55:31;;;;;;;4.10;2.30;;;18.70;31.60;;;;;;4992927;28;20858;-66
2021/04/04 12:58:06;;;;;;;8.23;2.40;;;18.70;32.60;;;;;;4990258;28;20088;-68
2021/04/04 13:00:33;;;;;;;6.63;2.28;;;18.90;32.60;;;;;;4992943;28;20045;-67
2021/04/04 13:03:07;;;;;;;6.28;2.20;;;19.10;32.80;;;;;;5004885;28;20033;-69
2021/04/04 13:05:34;;;;;;;6.47;2.78;;;19.20;31.90;;;;;;5001798;28;20034;-66
2021/04/04 13:08:00;;;;;;;5.53;2.50;;;19.20;32.30;;;;;;4992740;28;20395;-67
2021/04/04 13:10:26;;;;;;;7.20;2.38;;;19.40;32.50;;;;;;5003058;28;20088;-66
2021/04/04 13:12:52;;;;;;;5.60;2.53;;;19.60;32.20;;;;;;4998124;28;20030;-66
2021/04/04 13:15:28;;;;;;;6.97;2.80;;;19.70;31.90;;;;;;4982524;28;20023;-67